Aramari, Brazil
Current Conditions -  °F | °C
As of 11:00 AM on Sunday 23 Nov 2014 (Local Time) from SBSV Reporting Station
Scattered Clouds Scattered Clouds  
Wind Chill: 84°   Ceiling: Unl
Heat Index: 88°   Visibility: 6mi
Dew Point: 70°   Wind: 12mph
Humidity: 62%   Direction: 80°E
Pressure: 29.94"   Gusts: NA
Location:  12.08°S, 38.5°W
Report Text: SBSV 231400Z 08010KT 9999 SCT017 FEW020TCU SCT070 29/21 Q1014
Loading
Personal Weather Stations






























Interactive Weather Map New forecast layout! Learn more

10-Day Weather Forecast

Advertisements
Track Severe Weather on mobile